Time;durP1;ratioP1;P1;durP2;ratioP2;P2;SDS_P1;SDS_P2;PMS_P1;PMS_P2;Temp;Humidity;BMP_temperature;BMP_pressure;BME280_temperature;BME280_humidity;BME280_pressure;Samples;Min_cycle;Max_cycle;Signal;HPM_P1;HPM_P2
2021/06/19 00:00:14;;;;;;;15.67;7.60;;;23.40;89.60;;;;;;5123689;28;20632;-71
2021/06/19 00:02:41;;;;;;;10.00;6.97;;;23.50;89.40;;;;;;5121792;27;20997;-71
2021/06/19 00:05:10;;;;;;;7.43;5.90;;;23.50;87.80;;;;;;5122672;27;21080;-71
2021/06/19 00:07:37;;;;;;;7.37;6.10;;;23.50;86.80;;;;;;5119961;28;20658;-71
2021/06/19 00:10:05;;;;;;;8.10;5.10;;;23.50;86.50;;;;;;5117110;28;20996;-71
2021/06/19 00:12:34;;;;;;;11.47;5.80;;;23.50;85.10;;;;;;5120884;28;20649;-71
2021/06/19 00:15:01;;;;;;;7.83;4.80;;;23.60;84.80;;;;;;5120682;28;20673;-71
2021/06/19 00:17:27;;;;;;;8.93;6.83;;;23.50;84.90;;;;;;5092961;27;103120;-71
2021/06/19 00:19:54;;;;;;;18.00;5.50;;;23.50;85.30;;;;;;5120086;27;20625;-71
2021/06/19 00:22:21;;;;;;;7.67;5.07;;;23.50;85.60;;;;;;5119722;27;20748;-72
2021/06/19 00:24:48;;;;;;;7.47;5.40;;;23.50;85.00;;;;;;5119200;27;21048;-72
2021/06/19 00:27:15;;;;;;;13.13;5.50;;;23.50;85.40;;;;;;5123728;27;20629;-72
2021/06/19 00:29:43;;;;;;;9.97;5.57;;;23.50;85.60;;;;;;5123648;27;21157;-72
2021/06/19 00:32:10;;;;;;;6.40;5.80;;;23.60;86.40;;;;;;5125345;27;20743;-72
2021/06/19 00:34:37;;;;;;;13.10;6.70;;;23.40;87.70;;;;;;5126062;27;21136;-72
2021/06/19 00:37:04;;;;;;;9.10;6.33;;;23.40;89.60;;;;;;5114405;27;20738;-72
2021/06/19 00:39:31;;;;;;;9.57;6.80;;;23.30;90.10;;;;;;5118802;27;21096;-72
2021/06/19 00:41:58;;;;;;;9.37;7.43;;;23.20;90.60;;;;;;5123696;27;20632;-73
2021/06/19 00:44:24;;;;;;;8.90;7.00;;;23.10;90.80;;;;;;5122644;27;20670;-73
2021/06/19 00:46:54;;;;;;;10.60;6.47;;;23.10;90.40;;;;;;5120599;27;20619;-72
2021/06/19 00:49:21;;;;;;;7.77;6.90;;;23.20;90.20;;;;;;5126188;27;20720;-72
2021/06/19 00:51:48;;;;;;;9.53;6.97;;;23.10;90.00;;;;;;5123788;27;20633;-72
2021/06/19 00:54:18;;;;;;;12.03;6.03;;;23.20;90.00;;;;;;5120606;27;20661;-72
2021/06/19 00:56:46;;;;;;;11.13;6.87;;;23.20;90.30;;;;;;5124344;27;21210;-73
2021/06/19 00:59:15;;;;;;;11.70;6.80;;;23.20;90.50;;;;;;5116343;27;20643;-72
2021/06/19 01:01:42;;;;;;;11.90;6.70;;;23.20;90.40;;;;;;5127541;27;20994;-72
2021/06/19 01:04:10;;;;;;;11.37;6.70;;;23.10;90.70;;;;;;5121199;27;21050;-72
2021/06/19 01:06:37;;;;;;;12.17;6.23;;;23.10;90.60;;;;;;5126838;27;20641;-72
2021/06/19 01:09:06;;;;;;;13.63;6.40;;;23.00;90.40;;;;;;5117759;27;20660;-72
2021/06/19 01:11:34;;;;;;;16.33;6.60;;;23.00;90.20;;;;;;5124304;27;20632;-72
2021/06/19 01:14:02;;;;;;;11.83;6.80;;;23.00;90.30;;;;;;5119129;27;20632;-72
2021/06/19 01:16:30;;;;;;;9.80;6.27;;;22.90;90.10;;;;;;5119928;27;21302;-72
2021/06/19 01:18:57;;;;;;;11.37;6.10;;;22.90;90.40;;;;;;5126113;27;20632;-72
2021/06/19 01:21:29;;;;;;;10.03;5.10;;;22.90;90.30;;;;;;5120937;27;21072;-72
2021/06/19 01:23:56;;;;;;;10.53;4.80;;;22.90;89.00;;;;;;5119828;27;20662;-73
2021/06/19 01:26:26;;;;;;;9.60;6.13;;;23.10;87.40;;;;;;5120681;27;20621;-72
2021/06/19 01:28:54;;;;;;;6.83;5.43;;;23.30;85.30;;;;;;5126125;27;21261;-72
2021/06/19 01:31:22;;;;;;;8.07;5.40;;;23.40;85.90;;;;;;5118904;27;20715;-72
2021/06/19 01:33:53;;;;;;;7.87;4.60;;;23.30;86.10;;;;;;5115174;27;20609;-72
2021/06/19 01:36:22;;;;;;;8.00;5.03;;;23.30;86.70;;;;;;5120182;27;21327;-72
2021/06/19 01:38:52;;;;;;;9.60;4.57;;;23.20;87.30;;;;;;5121102;27;20643;-72
2021/06/19 01:41:20;;;;;;;6.97;5.20;;;23.20;87.80;;;;;;5125464;27;20727;-72
2021/06/19 01:43:50;;;;;;;9.50;5.50;;;23.20;89.10;;;;;;5123117;27;20688;-72
2021/06/19 01:46:17;;;;;;;6.67;4.90;;;23.10;88.90;;;;;;5120698;27;21227;-72
2021/06/19 01:48:44;;;;;;;6.00;5.40;;;23.10;89.00;;;;;;5125891;27;21262;-72
2021/06/19 01:51:13;;;;;;;6.93;5.00;;;23.10;89.70;;;;;;5115855;27;20981;-72
2021/06/19 01:53:41;;;;;;;9.60;5.30;;;22.90;90.10;;;;;;5123034;27;20631;-72
2021/06/19 01:56:09;;;;;;;7.60;5.27;;;22.90;90.30;;;;;;5118129;27;21177;-72
2021/06/19 01:58:36;;;;;;;4.97;4.50;;;22.80;90.90;;;;;;5121384;27;20636;-72
2021/06/19 02:01:07;;;;;;;5.47;4.70;;;22.80;90.90;;;;;;5122256;28;20629;-72
2021/06/19 02:03:36;;;;;;;9.17;5.73;;;22.70;91.50;;;;;;5122099;28;20633;-72
2021/06/19 02:06:05;;;;;;;10.33;6.00;;;22.70;91.80;;;;;;5124890;28;20716;-72
2021/06/19 02:08:32;;;;;;;11.57;5.90;;;22.80;92.20;;;;;;5112928;28;20620;-71
2021/06/19 02:11:01;;;;;;;8.73;5.93;;;22.70;92.30;;;;;;5124226;28;21185;-72
2021/06/19 02:13:28;;;;;;;10.60;6.37;;;22.60;92.50;;;;;;5116371;27;20636;-72
2021/06/19 02:15:59;;;;;;;10.97;6.90;;;22.50;92.50;;;;;;5110022;28;20763;-72
2021/06/19 02:18:28;;;;;;;9.30;6.23;;;22.50;93.00;;;;;;5121877;28;20639;-72
2021/06/19 02:20:55;;;;;;;11.33;6.30;;;22.40;93.10;;;;;;5120941;28;21248;-72
2021/06/19 02:23:24;;;;;;;10.40;6.50;;;22.30;93.40;;;;;;5126786;28;20747;-72
2021/06/19 02:25:52;;;;;;;9.20;6.83;;;22.30;93.60;;;;;;5121708;28;21291;-71
2021/06/19 02:28:21;;;;;;;12.03;6.67;;;22.20;94.00;;;;;;5122518;28;20640;-72
2021/06/19 02:30:53;;;;;;;13.67;7.30;;;22.20;94.40;;;;;;5126353;28;20627;-71
2021/06/19 02:33:20;;;;;;;10.83;7.23;;;22.20;94.50;;;;;;5112788;28;21165;-72
2021/06/19 02:35:49;;;;;;;8.30;6.27;;;22.10;95.00;;;;;;5124624;28;20757;-72
2021/06/19 02:38:17;;;;;;;10.30;6.37;;;22.10;95.10;;;;;;5121199;28;20632;-72
2021/06/19 02:40:44;;;;;;;11.43;6.90;;;22.20;95.10;;;;;;5120911;28;20636;-71
2021/06/19 02:43:12;;;;;;;9.40;6.00;;;22.20;94.40;;;;;;5120133;28;20626;-72
2021/06/19 02:45:40;;;;;;;8.10;6.20;;;22.20;94.40;;;;;;5121733;28;20632;-72
2021/06/19 02:48:12;;;;;;;10.23;6.77;;;22.10;94.30;;;;;;5125188;28;20632;-72
2021/06/19 02:50:41;;;;;;;16.40;7.53;;;21.90;95.10;;;;;;5126246;28;20635;-72
2021/06/19 02:53:11;;;;;;;7.37;6.30;;;21.80;95.20;;;;;;5120445;28;21217;-72
2021/06/19 02:55:40;;;;;;;9.43;7.13;;;21.80;95.60;;;;;;5123506;28;20733;-72
2021/06/19 02:58:08;;;;;;;8.87;6.50;;;21.70;95.70;;;;;;5121696;28;20634;-72
2021/06/19 03:00:35;;;;;;;16.40;9.03;;;21.80;95.90;;;;;;5122113;27;21188;-72
2021/06/19 03:03:02;;;;;;;10.50;5.83;;;21.80;95.70;;;;;;5128534;27;20647;-72
2021/06/19 03:05:30;;;;;;;8.80;6.60;;;21.70;96.10;;;;;;5122253;27;20731;-72
2021/06/19 03:07:58;;;;;;;7.30;6.20;;;21.70;96.20;;;;;;5123500;27;20715;-72
2021/06/19 03:10:28;;;;;;;9.80;6.93;;;21.60;96.60;;;;;;5124606;27;20689;-72
2021/06/19 03:12:56;;;;;;;11.20;6.60;;;21.60;96.90;;;;;;5119988;27;20633;-72
2021/06/19 03:15:23;;;;;;;10.80;6.77;;;21.60;97.40;;;;;;5125516;27;21284;-72
2021/06/19 03:17:51;;;;;;;13.87;6.97;;;21.70;97.60;;;;;;5127252;27;21224;-71
2021/06/19 03:20:19;;;;;;;13.87;7.13;;;21.60;98.00;;;;;;5128385;27;20632;-71
2021/06/19 03:22:47;;;;;;;8.83;7.47;;;21.50;98.60;;;;;;5128252;27;20628;-72
2021/06/19 03:25:17;;;;;;;9.97;7.00;;;21.40;99.80;;;;;;5121138;27;20660;-72
2021/06/19 03:27:46;;;;;;;12.23;7.70;;;21.30;99.70;;;;;;5121088;27;20630;-72
2021/06/19 03:30:13;;;;;;;10.03;7.03;;;21.20;99.90;;;;;;5125662;27;20719;-72
2021/06/19 03:32:40;;;;;;;12.10;7.37;;;21.10;99.90;;;;;;5127045;27;20679;-72
2021/06/19 03:35:11;;;;;;;8.43;7.50;;;21.10;99.90;;;;;;5122806;27;20719;-72
2021/06/19 03:37:41;;;;;;;10.90;7.67;;;21.30;99.90;;;;;;5121003;27;20646;-72
2021/06/19 03:40:10;;;;;;;12.70;8.20;;;21.20;99.90;;;;;;5117974;27;21287;-72
2021/06/19 03:42:37;;;;;;;12.30;8.50;;;21.40;99.90;;;;;;5117719;27;20629;-72
2021/06/19 03:45:08;;;;;;;14.93;8.20;;;21.20;99.90;;;;;;5124708;27;21304;-72
2021/06/19 03:47:35;;;;;;;13.03;9.20;;;21.00;99.90;;;;;;5124070;27;20730;-72
2021/06/19 03:50:02;;;;;;;9.53;7.90;;;20.90;99.90;;;;;;5120122;27;20608;-72
2021/06/19 03:52:29;;;;;;;14.13;8.77;;;20.90;99.90;;;;;;5125966;27;20632;-72
2021/06/19 03:54:55;;;;;;;8.73;7.80;;;20.80;99.90;;;;;;5120684;27;20751;-72
2021/06/19 03:57:24;;;;;;;13.53;7.50;;;20.90;99.90;;;;;;5119376;27;20783;-72
2021/06/19 03:59:51;;;;;;;12.30;8.17;;;20.90;99.90;;;;;;5114869;27;20640;-72
2021/06/19 04:02:20;;;;;;;9.82;8.50;;;20.90;99.90;;;;;;5115471;27;20655;-72
2021/06/19 04:04:47;;;;;;;10.50;8.63;;;20.90;99.90;;;;;;5119885;27;20210;-72
2021/06/19 04:07:14;;;;;;;11.70;9.30;;;21.00;99.90;;;;;;5126619;27;20743;-72
2021/06/19 04:09:41;;;;;;;10.70;8.37;;;21.00;99.90;;;;;;5119844;27;20293;-72
2021/06/19 04:12:09;;;;;;;11.77;9.30;;;21.10;99.90;;;;;;5113659;27;20728;-72
2021/06/19 04:14:36;;;;;;;13.53;8.70;;;21.10;99.90;;;;;;5117883;27;20640;-72
2021/06/19 04:17:03;;;;;;;9.90;8.67;;;21.10;99.90;;;;;;5128503;27;20676;-72
2021/06/19 04:19:31;;;;;;;12.60;8.60;;;21.20;99.90;;;;;;5123091;27;21469;-72
2021/06/19 04:21:58;;;;;;;12.30;9.00;;;21.20;99.90;;;;;;5120799;27;20625;-73
2021/06/19 04:24:26;;;;;;;14.40;9.17;;;21.20;99.90;;;;;;5116926;27;20709;-72
2021/06/19 04:26:52;;;;;;;12.70;9.33;;;21.20;99.90;;;;;;5124651;27;21241;-72
2021/06/19 04:29:19;;;;;;;10.63;9.10;;;21.20;99.90;;;;;;5124451;27;20733;-72
2021/06/19 04:31:46;;;;;;;13.30;9.23;;;21.20;99.90;;;;;;5126393;27;20628;-72
2021/06/19 04:34:13;;;;;;;14.40;9.63;;;21.20;99.90;;;;;;5115823;27;20641;-72
2021/06/19 04:36:41;;;;;;;16.53;10.20;;;21.20;99.90;;;;;;5124466;27;20668;-72
2021/06/19 04:39:08;;;;;;;16.50;9.80;;;21.10;99.90;;;;;;5118822;27;20629;-72
2021/06/19 04:41:43;;;;;;;11.23;10.17;;;21.30;99.90;;;;;;5127053;27;20625;-72
2021/06/19 04:44:21;;;;;;;10.73;9.23;;;21.50;99.90;;;;;;5127602;27;20676;-72
2021/06/19 04:46:50;;;;;;;13.13;9.77;;;21.60;99.90;;;;;;5123660;27;20641;-72
2021/06/19 04:49:18;;;;;;;12.37;10.17;;;21.50;99.90;;;;;;5124300;27;20639;-72
2021/06/19 04:51:46;;;;;;;12.57;9.50;;;21.60;99.90;;;;;;5127498;27;20625;-72
2021/06/19 04:54:14;;;;;;;12.27;9.53;;;21.90;99.90;;;;;;5126530;27;21062;-73
2021/06/19 04:56:41;;;;;;;11.30;9.43;;;23.20;99.90;;;;;;5125773;27;21365;-72
2021/06/19 04:59:09;;;;;;;12.43;9.47;;;25.00;99.90;;;;;;5120670;27;20632;-73
2021/06/19 05:01:36;;;;;;;11.00;7.97;;;26.00;96.90;;;;;;5122846;27;20637;-73
2021/06/19 05:04:03;;;;;;;10.80;8.53;;;26.80;95.20;;;;;;5123032;27;20732;-72
2021/06/19 05:06:30;;;;;;;9.37;7.80;;;27.50;93.60;;;;;;5127772;27;20668;-73
2021/06/19 05:08:58;;;;;;;10.23;6.93;;;27.60;93.00;;;;;;5125808;27;21199;-73
2021/06/19 05:11:25;;;;;;;9.37;8.50;;;28.30;91.50;;;;;;5127132;27;20639;-73
2021/06/19 05:13:52;;;;;;;10.10;7.60;;;28.80;90.20;;;;;;5119286;27;20657;-73
2021/06/19 05:16:18;;;;;;;8.63;7.53;;;29.80;87.50;;;;;;5115667;27;20750;-73
2021/06/19 05:18:45;;;;;;;8.83;7.40;;;30.50;83.80;;;;;;5124480;27;20639;-73
2021/06/19 05:21:12;;;;;;;8.57;7.73;;;31.40;79.50;;;;;;5122833;27;20624;-73
2021/06/19 05:23:39;;;;;;;8.87;7.80;;;31.70;77.60;;;;;;5118457;27;21280;-73
2021/06/19 05:26:07;;;;;;;9.83;7.60;;;31.70;77.00;;;;;;5124976;27;20639;-73
2021/06/19 05:28:34;;;;;;;8.47;7.60;;;32.10;77.10;;;;;;5126425;27;20628;-73
2021/06/19 05:31:03;;;;;;;13.03;7.93;;;32.20;75.50;;;;;;5126713;27;20735;-73
2021/06/19 05:33:30;;;;;;;9.03;7.37;;;32.50;73.10;;;;;;5117516;27;21177;-73
2021/06/19 05:35:57;;;;;;;10.40;7.03;;;32.80;73.20;;;;;;5123120;27;21204;-74
2021/06/19 05:38:26;;;;;;;8.57;7.67;;;32.90;72.90;;;;;;5125335;27;20723;-73
2021/06/19 05:40:53;;;;;;;9.20;8.20;;;32.10;73.00;;;;;;5120024;27;20981;-73
2021/06/19 05:43:21;;;;;;;8.53;7.60;;;30.40;77.60;;;;;;5116197;27;21190;-74
2021/06/19 05:45:48;;;;;;;8.70;7.43;;;29.70;80.90;;;;;;5118052;27;21062;-73
2021/06/19 05:48:15;;;;;;;9.50;7.40;;;29.40;81.80;;;;;;5113725;27;20728;-73
2021/06/19 05:50:42;;;;;;;9.33;7.93;;;28.80;84.10;;;;;;5123829;27;20668;-73
2021/06/19 05:53:08;;;;;;;9.53;8.27;;;27.90;87.50;;;;;;5126633;27;20643;-73
2021/06/19 05:55:35;;;;;;;8.70;8.00;;;27.10;90.10;;;;;;5118202;27;20639;-73
2021/06/19 05:58:02;;;;;;;10.80;8.93;;;26.60;91.20;;;;;;5123256;27;20775;-72
2021/06/19 06:00:32;;;;;;;11.53;8.80;;;26.20;91.60;;;;;;5118938;27;21439;-73
2021/06/19 06:03:01;;;;;;;11.60;9.20;;;25.80;92.80;;;;;;5118967;28;20644;-73
2021/06/19 06:05:28;;;;;;;14.20;9.37;;;25.30;93.60;;;;;;5117874;28;20604;-73
2021/06/19 06:07:56;;;;;;;12.30;8.83;;;25.30;94.90;;;;;;5116136;28;20705;-70
2021/06/19 06:10:26;;;;;;;8.90;7.87;;;26.40;93.60;;;;;;5126387;28;21114;-70
2021/06/19 06:12:53;;;;;;;14.23;8.30;;;28.60;89.90;;;;;;5123881;28;20984;-70
2021/06/19 06:15:19;;;;;;;9.03;8.17;;;30.40;83.90;;;;;;5118020;28;20716;-70
2021/06/19 06:17:48;;;;;;;9.83;7.47;;;32.60;76.00;;;;;;5119423;28;20695;-69
2021/06/19 06:20:15;;;;;;;8.37;7.43;;;32.30;73.40;;;;;;5122502;28;20625;-69
2021/06/19 06:22:42;;;;;;;8.77;7.77;;;33.80;70.60;;;;;;5117226;28;20640;-69
2021/06/19 06:25:13;;;;;;;6.80;6.20;;;34.10;70.20;;;;;;5120717;28;20636;-69
2021/06/19 06:27:40;;;;;;;10.87;7.50;;;35.50;65.30;;;;;;5125015;28;20711;-70
2021/06/19 06:30:08;;;;;;;8.13;7.33;;;36.20;62.50;;;;;;5120142;28;21133;-69
2021/06/19 06:32:36;;;;;;;10.77;7.90;;;36.30;61.10;;;;;;5116024;27;20655;-69
2021/06/19 06:35:06;;;;;;;10.93;7.00;;;34.80;61.80;;;;;;5126735;27;20991;-69
2021/06/19 06:37:33;;;;;;;8.07;6.77;;;35.10;63.50;;;;;;5125969;27;20700;-69
2021/06/19 06:40:00;;;;;;;9.57;6.70;;;35.60;62.00;;;;;;5121235;27;20628;-70
2021/06/19 06:42:27;;;;;;;7.80;6.93;;;36.50;59.70;;;;;;5125626;27;20634;-69
2021/06/19 06:44:53;;;;;;;8.93;7.53;;;37.30;58.00;;;;;;5120314;27;20689;-70
2021/06/19 06:47:20;;;;;;;14.40;7.90;;;37.60;57.20;;;;;;5126747;27;20740;-70
2021/06/19 06:49:47;;;;;;;11.10;7.40;;;37.40;58.30;;;;;;5121937;27;20620;-70
2021/06/19 06:52:15;;;;;;;8.13;7.30;;;36.70;59.80;;;;;;5124287;27;20697;-69
2021/06/19 06:54:42;;;;;;;8.60;7.23;;;36.60;58.90;;;;;;5124810;27;20617;-70
2021/06/19 06:57:10;;;;;;;10.37;6.93;;;37.00;57.70;;;;;;5120659;27;20780;-69
2021/06/19 06:59:37;;;;;;;8.60;7.30;;;37.00;57.40;;;;;;5126361;27;20632;-70
2021/06/19 07:02:05;;;;;;;7.93;7.20;;;36.80;58.50;;;;;;5126618;27;21185;-70
2021/06/19 07:04:32;;;;;;;8.03;7.23;;;36.10;59.20;;;;;;5125098;27;21145;-70
2021/06/19 07:06:59;;;;;;;8.90;6.70;;;35.70;59.90;;;;;;5124394;27;20629;-69
2021/06/19 07:09:27;;;;;;;8.13;7.03;;;36.50;58.70;;;;;;5123709;27;20737;-70
2021/06/19 07:11:54;;;;;;;8.40;6.93;;;35.60;59.60;;;;;;5123049;27;20616;-70
2021/06/19 07:14:21;;;;;;;9.83;7.43;;;35.90;59.50;;;;;;5118177;27;20636;-69
2021/06/19 07:16:47;;;;;;;8.57;7.10;;;35.70;60.30;;;;;;5127282;27;20702;-69
2021/06/19 07:19:14;;;;;;;7.70;7.03;;;36.40;58.90;;;;;;5118966;27;20762;-69
2021/06/19 07:21:41;;;;;;;7.57;6.87;;;37.20;57.80;;;;;;5124646;27;20731;-69
2021/06/19 07:24:08;;;;;;;7.97;7.20;;;37.10;58.00;;;;;;5121992;27;21230;-69
2021/06/19 07:26:36;;;;;;;9.50;7.33;;;36.60;58.20;;;;;;5122966;27;21057;-70
2021/06/19 07:29:03;;;;;;;8.67;7.87;;;36.20;58.80;;;;;;5119942;27;20636;-69
2021/06/19 07:31:30;;;;;;;9.23;8.20;;;36.30;58.30;;;;;;5124667;27;20631;-69
2021/06/19 07:33:57;;;;;;;11.63;9.07;;;36.50;57.60;;;;;;5118254;27;20617;-70
2021/06/19 07:36:24;;;;;;;10.43;8.40;;;36.40;56.50;;;;;;5122993;27;20651;-70
2021/06/19 07:38:51;;;;;;;7.97;7.17;;;36.20;56.90;;;;;;5126263;27;20672;-69
2021/06/19 07:41:18;;;;;;;9.00;8.20;;;36.30;56.60;;;;;;5125181;27;20685;-68
2021/06/19 07:43:48;;;;;;;9.13;8.20;;;36.80;55.60;;;;;;5125503;27;20723;-68
2021/06/19 07:46:14;;;;;;;8.37;7.27;;;35.80;57.20;;;;;;5124488;27;20724;-67
2021/06/19 07:48:42;;;;;;;9.13;8.13;;;36.00;58.20;;;;;;5123642;27;21192;-68
2021/06/19 07:51:08;;;;;;;9.23;7.80;;;36.20;57.10;;;;;;5113651;27;21269;-69
2021/06/19 07:53:35;;;;;;;8.80;7.73;;;35.00;59.90;;;;;;5110997;27;20632;-68
2021/06/19 07:56:05;;;;;;;9.17;8.40;;;35.50;59.60;;;;;;5124969;27;20632;-74
2021/06/19 07:58:32;;;;;;;8.00;7.23;;;36.20;56.50;;;;;;5123665;27;21023;-73
2021/06/19 08:01:00;;;;;;;9.83;8.17;;;36.40;56.70;;;;;;5121404;27;20612;-73
2021/06/19 08:03:27;;;;;;;8.20;7.50;;;36.60;56.00;;;;;;5122674;27;20641;-73
2021/06/19 08:05:55;;;;;;;9.60;8.37;;;36.20;57.40;;;;;;5122741;27;21046;-74
2021/06/19 08:08:22;;;;;;;9.13;8.23;;;35.70;57.20;;;;;;5125626;27;21261;-73
2021/06/19 08:10:53;;;;;;;8.57;7.87;;;37.00;55.90;;;;;;5117929;27;20629;-73
2021/06/19 08:13:20;;;;;;;8.47;7.80;;;36.60;55.50;;;;;;5128855;27;20685;-72
2021/06/19 08:15:46;;;;;;;9.63;8.20;;;36.40;56.30;;;;;;5120396;27;20643;-72
2021/06/19 08:18:15;;;;;;;9.47;8.53;;;36.60;56.00;;;;;;5126002;27;20752;-72
2021/06/19 08:20:41;;;;;;;8.97;8.07;;;36.10;56.60;;;;;;5124161;27;20627;-73
2021/06/19 08:23:08;;;;;;;9.63;7.97;;;36.00;56.30;;;;;;5121182;27;20635;-73
2021/06/19 08:25:35;;;;;;;9.43;8.03;;;35.60;57.20;;;;;;5124007;27;21049;-73
2021/06/19 08:28:02;;;;;;;8.43;7.60;;;35.00;59.00;;;;;;5122776;27;20632;-73
2021/06/19 08:30:29;;;;;;;9.00;8.17;;;35.30;58.90;;;;;;5121421;27;20728;-73
2021/06/19 08:32:56;;;;;;;10.03;9.13;;;35.90;57.50;;;;;;5117390;27;20715;-73
2021/06/19 08:35:24;;;;;;;9.37;8.47;;;36.10;57.60;;;;;;5119807;27;21031;-73
2021/06/19 08:37:51;;;;;;;9.63;8.63;;;36.70;56.40;;;;;;5128164;27;20683;-72
2021/06/19 08:40:20;;;;;;;9.17;8.47;;;36.90;57.10;;;;;;5122836;27;21293;-73
2021/06/19 08:42:47;;;;;;;11.13;9.20;;;36.20;57.50;;;;;;5126799;27;20991;-72
2021/06/19 08:45:14;;;;;;;10.17;8.90;;;35.30;59.00;;;;;;5120730;27;21169;-73
2021/06/19 08:47:41;;;;;;;9.70;8.50;;;34.90;59.20;;;;;;5125308;27;20632;-72
2021/06/19 08:50:10;;;;;;;9.23;8.40;;;35.10;59.40;;;;;;5121322;27;20720;-72
2021/06/19 08:52:39;;;;;;;9.97;8.83;;;35.10;59.60;;;;;;5125680;27;20631;-72
2021/06/19 08:55:09;;;;;;;11.13;9.20;;;35.00;59.00;;;;;;5123606;27;20720;-73
2021/06/19 08:57:36;;;;;;;9.93;9.10;;;35.30;58.50;;;;;;5116540;27;21027;-73
2021/06/19 09:00:07;;;;;;;9.60;8.80;;;35.30;59.20;;;;;;5126952;27;20647;-72
2021/06/19 09:02:34;;;;;;;10.10;8.90;;;34.80;60.00;;;;;;5125981;27;20712;-73
2021/06/19 09:05:07;;;;;;;9.07;8.17;;;34.60;60.60;;;;;;5126361;27;20642;-73
2021/06/19 09:07:44;;;;;;;8.80;8.00;;;34.20;62.70;;;;;;5121653;27;20728;-73
2021/06/19 09:10:29;;;;;;;10.10;9.03;;;34.80;59.50;;;;;;5122736;27;20728;-73
2021/06/19 09:13:01;;;;;;;11.50;8.37;;;33.90;61.50;;;;;;5127397;27;20647;-72
2021/06/19 09:15:29;;;;;;;9.33;8.40;;;34.70;59.30;;;;;;5122301;27;20629;-73
2021/06/19 09:18:08;;;;;;;9.33;8.37;;;35.30;58.50;;;;;;5113074;27;20747;-72
2021/06/19 09:20:37;;;;;;;10.03;9.03;;;35.20;58.90;;;;;;5121761;27;20727;-72
2021/06/19 09:23:06;;;;;;;9.53;8.63;;;35.10;58.20;;;;;;5124572;27;20621;-73
2021/06/19 09:25:33;;;;;;;9.83;8.83;;;34.20;60.30;;;;;;5118395;27;20732;-73
2021/06/19 09:28:00;;;;;;;11.20;9.07;;;34.50;59.60;;;;;;5123508;27;21279;-73
2021/06/19 09:30:28;;;;;;;12.17;8.67;;;34.20;60.40;;;;;;5121652;27;21240;-73
2021/06/19 09:32:56;;;;;;;10.77;9.17;;;34.10;61.00;;;;;;5119722;27;20628;-73
2021/06/19 09:35:26;;;;;;;9.50;8.53;;;34.20;59.50;;;;;;5128214;27;20633;-73
2021/06/19 09:37:56;;;;;;;9.40;8.50;;;34.40;59.40;;;;;;5133624;27;20853;-73
2021/06/19 09:40:27;;;;;;;9.67;8.73;;;34.90;57.50;;;;;;5124712;27;20644;-72
2021/06/19 09:43:06;;;;;;;9.57;8.63;;;35.50;57.20;;;;;;5127026;27;21254;-73
2021/06/19 09:45:33;;;;;;;9.43;8.53;;;35.10;57.50;;;;;;5124177;27;20983;-73
2021/06/19 09:48:00;;;;;;;11.40;8.90;;;34.50;59.60;;;;;;5125625;27;20727;-72
2021/06/19 09:50:28;;;;;;;12.30;9.17;;;35.00;56.60;;;;;;5117907;27;20626;-72
2021/06/19 09:52:54;;;;;;;8.93;8.13;;;34.70;57.70;;;;;;5121007;27;21193;-72
2021/06/19 09:55:21;;;;;;;10.43;9.37;;;34.50;59.20;;;;;;5125955;27;20723;-71
2021/06/19 09:57:52;;;;;;;9.37;8.67;;;34.10;59.20;;;;;;5124287;27;21038;-71
2021/06/19 10:00:21;;;;;;;9.47;8.57;;;33.40;60.00;;;;;;5123265;27;20725;-71
2021/06/19 10:02:49;;;;;;;10.43;8.23;;;33.20;61.70;;;;;;5124894;28;21418;-72
2021/06/19 10:05:16;;;;;;;9.53;8.73;;;33.00;61.40;;;;;;5125802;28;20628;-71
2021/06/19 10:07:45;;;;;;;9.60;8.70;;;33.20;59.40;;;;;;5124184;28;20747;-72
2021/06/19 10:10:14;;;;;;;9.23;8.43;;;33.40;60.80;;;;;;5128307;27;20628;-72
2021/06/19 10:12:41;;;;;;;9.57;8.67;;;33.10;62.30;;;;;;5128404;27;21090;-71
2021/06/19 10:15:11;;;;;;;10.33;9.00;;;33.10;61.10;;;;;;5123130;27;20640;-72
2021/06/19 10:17:41;;;;;;;12.40;9.70;;;33.30;60.60;;;;;;5120185;27;20754;-72
2021/06/19 10:20:11;;;;;;;10.70;8.93;;;33.40;61.50;;;;;;5126094;27;20647;-72
2021/06/19 10:22:39;;;;;;;10.53;8.83;;;33.10;61.80;;;;;;5128043;27;20993;-73
2021/06/19 10:25:09;;;;;;;11.80;9.17;;;32.80;62.40;;;;;;5128812;27;20709;-73
2021/06/19 10:27:38;;;;;;;10.20;9.20;;;32.50;63.50;;;;;;5129454;27;20624;-73
2021/06/19 10:30:09;;;;;;;10.63;9.37;;;32.60;64.80;;;;;;5124696;27;20626;-74
2021/06/19 10:32:41;;;;;;;11.73;8.90;;;32.70;62.90;;;;;;5122165;27;21225;-74
2021/06/19 10:35:11;;;;;;;10.47;9.50;;;33.00;63.20;;;;;;5120953;27;20728;-73
2021/06/19 10:37:38;;;;;;;9.70;8.70;;;33.10;65.90;;;;;;5130262;27;20668;-73
2021/06/19 10:40:18;;;;;;;10.17;9.27;;;32.90;64.40;;;;;;5125643;27;20706;-73
2021/06/19 10:42:46;;;;;;;8.73;8.03;;;33.20;64.50;;;;;;5123100;27;20640;-73
2021/06/19 10:45:21;;;;;;;10.27;9.37;;;33.30;63.50;;;;;;5124173;27;20632;-73
2021/06/19 10:48:07;;;;;;;11.20;8.90;;;33.40;61.20;;;;;;5122708;27;20722;-71
2021/06/19 10:50:34;;;;;;;10.20;9.13;;;32.80;62.70;;;;;;5129555;27;20632;-74
2021/06/19 10:53:09;;;;;;;10.77;9.67;;;32.80;62.40;;;;;;5130156;27;20669;-74
2021/06/19 10:55:52;;;;;;;10.27;8.70;;;32.30;63.90;;;;;;5119831;27;20642;-74
2021/06/19 10:58:21;;;;;;;10.30;9.30;;;32.20;62.40;;;;;;5128469;27;20777;-74
2021/06/19 11:00:51;;;;;;;12.27;9.30;;;32.00;63.10;;;;;;5125894;27;20626;-72
2021/06/19 11:03:38;;;;;;;9.47;8.57;;;32.40;64.20;;;;;;5129323;27;20637;-72
2021/06/19 11:06:21;;;;;;;10.40;9.50;;;31.70;63.60;;;;;;5126857;27;20698;-73
2021/06/19 11:09:13;;;;;;;11.50;9.30;;;31.90;64.50;;;;;;5121449;27;20633;-73
2021/06/19 11:12:02;;;;;;;9.40;8.50;;;31.90;63.60;;;;;;5122653;27;20725;-73
2021/06/19 11:14:58;;;;;;;10.57;9.30;;;31.50;63.10;;;;;;5118316;27;21213;-73
2021/06/19 11:17:48;;;;;;;12.53;8.50;;;31.40;65.70;;;;;;5128170;27;20689;-73
2021/06/19 11:20:31;;;;;;;9.60;8.70;;;31.50;63.90;;;;;;5120589;27;20662;-71
2021/06/19 11:23:06;;;;;;;10.60;9.60;;;31.50;62.20;;;;;;5121292;27;20706;-73
2021/06/19 11:25:43;;;;;;;10.27;6.73;;;31.60;64.00;;;;;;5124577;27;20624;-72
2021/06/19 11:28:11;;;;;;;11.27;7.30;;;31.70;58.40;;;;;;5126433;27;20621;-72
2021/06/19 11:30:46;;;;;;;8.43;7.10;;;32.10;57.00;;;;;;5127028;27;21013;-72
2021/06/19 11:33:47;;;;;;;8.23;7.20;;;32.10;56.90;;;;;;5120505;27;20621;-73
2021/06/19 11:36:40;;;;;;;9.10;8.20;;;32.40;57.40;;;;;;5112518;27;21193;-71
2021/06/19 11:39:13;;;;;;;9.17;7.47;;;32.00;58.60;;;;;;5113362;27;20686;-71
2021/06/19 11:41:49;;;;;;;12.33;7.60;;;31.90;58.40;;;;;;5125362;27;20636;-71
2021/06/19 11:44:31;;;;;;;8.47;7.10;;;31.90;58.30;;;;;;5126427;27;21195;-71
2021/06/19 11:47:07;;;;;;;6.90;6.40;;;32.10;58.10;;;;;;5121292;27;20635;-71
2021/06/19 11:49:41;;;;;;;8.23;6.30;;;32.00;59.40;;;;;;5120624;27;20979;-71
2021/06/19 11:52:14;;;;;;;8.37;7.00;;;32.20;59.30;;;;;;5126068;27;21026;-71
2021/06/19 11:54:44;;;;;;;8.87;6.20;;;32.40;58.80;;;;;;5122901;27;20752;-71
2021/06/19 11:57:22;;;;;;;9.50;7.00;;;32.30;57.30;;;;;;5126172;27;21247;-72
2021/06/19 12:00:08;;;;;;;9.13;6.80;;;32.50;56.30;;;;;;5123180;27;20675;-71
2021/06/19 12:02:36;;;;;;;8.60;6.50;;;32.40;57.00;;;;;;5126533;27;20992;-70
2021/06/19 12:05:13;;;;;;;9.00;6.00;;;32.60;56.40;;;;;;5122982;27;21276;-71
2021/06/19 12:07:40;;;;;;;9.10;6.10;;;32.30;55.30;;;;;;5126248;27;20989;-71
2021/06/19 12:10:29;;;;;;;12.13;5.80;;;32.50;56.90;;;;;;5121726;27;20636;-71
2021/06/19 12:13:00;;;;;;;11.20;5.93;;;32.60;55.10;;;;;;5123488;27;20654;-71
2021/06/19 12:15:28;;;;;;;9.80;5.93;;;32.30;55.10;;;;;;5124058;27;20778;-72
2021/06/19 12:17:54;;;;;;;6.80;6.03;;;32.00;54.40;;;;;;5124224;27;20716;-71
2021/06/19 12:20:23;;;;;;;7.03;6.33;;;32.20;56.60;;;;;;5125946;27;20687;-71
2021/06/19 12:22:51;;;;;;;7.93;6.47;;;32.40;56.00;;;;;;5120675;27;20661;-72
2021/06/19 12:25:29;;;;;;;8.60;5.77;;;32.60;55.10;;;;;;5123073;27;20719;-72
2021/06/19 12:27:56;;;;;;;8.73;5.90;;;32.50;54.70;;;;;;5122187;27;21071;-72
2021/06/19 12:30:23;;;;;;;8.60;6.50;;;32.70;53.20;;;;;;5123407;27;20725;-72
2021/06/19 12:32:50;;;;;;;7.80;6.10;;;32.60;53.20;;;;;;5124466;27;20629;-72
2021/06/19 12:35:19;;;;;;;8.37;5.70;;;32.60;55.00;;;;;;5123745;27;21037;-72
2021/06/19 12:37:53;;;;;;;6.37;5.60;;;32.60;53.40;;;;;;5121059;27;20628;-72
2021/06/19 12:40:24;;;;;;;13.73;6.73;;;32.40;54.40;;;;;;5123135;27;20718;-72
2021/06/19 12:43:02;;;;;;;8.83;7.00;;;32.30;53.70;;;;;;5123405;27;21364;-73
2021/06/19 12:45:33;;;;;;;8.00;6.40;;;32.40;55.20;;;;;;5124127;27;20627;-72
2021/06/19 12:48:00;;;;;;;13.60;6.60;;;32.50;54.70;;;;;;5121406;27;20633;-71
2021/06/19 12:50:38;;;;;;;8.23;7.40;;;32.60;53.60;;;;;;5123205;27;20686;-74
2021/06/19 12:53:08;;;;;;;10.33;5.80;;;32.60;56.30;;;;;;5122794;27;20718;-71